Time;durP1;ratioP1;P1;durP2;ratioP2;P2;SDS_P1;SDS_P2;PMS_P1;PMS_P2;Temp;Humidity;BMP_temperature;BMP_pressure;BME280_temperature;BME280_humidity;BME280_pressure;Samples;Min_cycle;Max_cycle;Signal;HPM_P1;HPM_P2
2022/04/27 00:00:02;;;;;;;5.10;2.80;;;;;;;11.82;83.80;96439.41;4995963;28;20053;-65
2022/04/27 00:02:30;;;;;;;3.67;2.83;;;;;;;11.80;83.49;96430.78;4995927;28;20030;-65
2022/04/27 00:04:56;;;;;;;2.72;2.53;;;;;;;11.80;83.82;96428.16;4995995;28;20396;-65
2022/04/27 00:07:22;;;;;;;4.45;2.25;;;;;;;11.76;82.82;96424.81;4995999;28;20437;-65
2022/04/27 00:09:48;;;;;;;4.63;2.35;;;;;;;11.80;82.30;96415.03;4978430;28;20019;-64
2022/04/27 00:12:13;;;;;;;2.88;2.20;;;;;;;11.86;82.69;96422.63;4995878;28;20030;-65
2022/04/27 00:14:39;;;;;;;2.78;2.50;;;;;;;11.86;81.83;96414.78;4995768;28;20026;-65
2022/04/27 00:17:05;;;;;;;2.55;2.35;;;;;;;11.88;81.99;96410.28;4995749;28;20046;-65
2022/04/27 00:19:31;;;;;;;2.47;2.28;;;;;;;11.91;82.22;96414.53;4995812;28;20026;-65
2022/04/27 00:21:56;;;;;;;2.95;2.72;;;;;;;11.98;82.32;96408.13;4995741;28;20030;-64
2022/04/27 00:24:22;;;;;;;5.95;2.55;;;;;;;12.05;81.94;96409.53;4995596;28;20477;-65
2022/04/27 00:26:47;;;;;;;3.80;2.47;;;;;;;12.08;82.10;96417.28;4995547;28;20018;-63
2022/04/27 00:29:13;;;;;;;4.22;2.47;;;;;;;12.11;81.88;96417.16;4995489;28;20428;-65
2022/04/27 00:31:38;;;;;;;4.45;2.42;;;;;;;12.11;81.14;96417.16;4995583;28;20499;-65
2022/04/27 00:34:04;;;;;;;4.00;2.28;;;;;;;12.14;81.03;96421.41;4995549;28;20022;-65
2022/04/27 00:36:31;;;;;;;3.25;2.33;;;;;;;12.06;80.39;96407.75;4995491;28;20022;-64
2022/04/27 00:39:00;;;;;;;4.50;2.15;;;;;;;11.80;79.98;96420.28;4995374;28;20125;-68
2022/04/27 00:41:25;;;;;;;4.45;2.35;;;;;;;11.70;80.01;96414.59;4995057;28;20046;-67
2022/04/27 00:43:51;;;;;;;3.10;2.22;;;;;;;11.51;80.77;96404.94;4995141;28;20030;-68
2022/04/27 00:46:16;;;;;;;5.15;2.28;;;;;;;11.54;81.02;96407.44;4995267;28;20030;-65
2022/04/27 00:48:42;;;;;;;2.97;2.22;;;;;;;11.55;79.73;96400.41;4995253;28;20027;-65
2022/04/27 00:51:14;;;;;;;4.30;2.10;;;;;;;11.41;79.59;96395.78;4995088;28;20026;-67
2022/04/27 00:53:43;;;;;;;2.15;1.80;;;;;;;11.34;79.41;96403.03;4995122;28;20030;-63
2022/04/27 00:56:10;;;;;;;2.47;2.22;;;;;;;11.17;79.54;96396.75;4995064;28;20112;-63
2022/04/27 00:58:35;;;;;;;2.90;2.15;;;;;;;10.99;80.01;96395.81;4995019;28;20116;-62
2022/04/27 01:01:01;;;;;;;2.22;1.92;;;;;;;10.95;79.82;96392.44;4994815;28;20062;-64
2022/04/27 01:03:26;;;;;;;4.90;2.60;;;;;;;10.82;80.38;96392.13;4994907;28;20109;-62
2022/04/27 01:05:53;;;;;;;4.85;2.33;;;;;;;10.71;80.71;96403.00;4994955;28;20018;-66
2022/04/27 01:08:22;;;;;;;2.80;2.60;;;;;;;10.60;81.66;96395.59;4994204;28;20029;-66
2022/04/27 01:10:49;;;;;;;3.20;2.28;;;;;;;10.59;81.21;96399.13;4977407;28;20437;-68
2022/04/27 01:13:16;;;;;;;4.97;2.17;;;;;;;10.51;80.43;96400.34;4994641;28;20065;-64
2022/04/27 01:15:42;;;;;;;6.90;2.40;;;;;;;10.48;80.36;96398.72;4994680;28;20452;-67
2022/04/27 01:18:11;;;;;;;6.75;4.28;;;;;;;10.47;79.88;96391.75;4994682;28;20098;-64
2022/04/27 01:20:46;;;;;;;6.25;2.28;;;;;;;10.46;79.39;96385.69;4994469;28;20034;-67
2022/04/27 01:23:13;;;;;;;3.45;2.38;;;;;;;10.40;78.99;96387.66;4994695;28;20038;-65
2022/04/27 01:25:48;;;;;;;7.43;3.05;;;;;;;10.36;78.95;96395.63;4994592;28;20022;-67
2022/04/27 01:28:19;;;;;;;3.72;2.40;;;;;;;10.30;78.57;96395.03;4994231;28;20034;-64
2022/04/27 01:30:46;;;;;;;3.28;2.20;;;;;;;10.27;78.40;96398.63;4994340;28;20480;-67
2022/04/27 01:33:12;;;;;;;2.63;1.83;;;;;;;10.28;78.21;96387.25;4994388;28;20026;-66
2022/04/27 01:35:38;;;;;;;7.03;1.95;;;;;;;10.18;77.56;96386.72;4994361;28;20014;-65
2022/04/27 01:38:04;;;;;;;4.55;1.90;;;;;;;10.12;77.64;96387.00;4994324;28;20029;-64
2022/04/27 01:40:30;;;;;;;2.83;1.45;;;;;;;10.03;76.98;96390.81;4993840;28;20072;-65
2022/04/27 01:42:56;;;;;;;2.05;1.63;;;;;;;9.99;77.37;96390.06;4994268;28;20018;-65
2022/04/27 01:45:22;;;;;;;3.75;1.60;;;;;;;9.92;77.44;96385.13;4994133;28;20023;-64
2022/04/27 01:47:47;;;;;;;6.95;1.38;;;;;;;9.80;77.30;96384.69;4994093;28;20034;-64
2022/04/27 01:50:13;;;;;;;1.95;1.75;;;;;;;9.71;77.09;96379.81;4994087;28;20036;-63
2022/04/27 01:55:23;;;;;;;5.93;3.30;;;;;;;9.60;78.28;96374.97;4994340;28;20165;-66
2022/04/27 01:57:49;;;;;;;2.72;1.70;;;;;;;9.57;78.30;96373.34;4994019;28;20113;-67
2022/04/27 02:00:15;;;;;;;2.05;1.83;;;;;;;9.50;78.23;96374.47;4993959;28;20026;-67
2022/04/27 02:02:41;;;;;;;4.38;2.03;;;;;;;9.45;78.09;96369.41;4993911;28;20025;-65
2022/04/27 02:05:07;;;;;;;2.50;1.80;;;;;;;9.38;77.59;96372.28;4993814;28;20794;-66
2022/04/27 02:07:33;;;;;;;4.38;2.05;;;;;;;9.34;79.29;96364.56;4993744;28;20019;-64
2022/04/27 02:09:58;;;;;;;2.20;2.00;;;;;;;9.32;78.97;96368.16;4993769;28;20022;-65
2022/04/27 02:12:24;;;;;;;4.03;2.05;;;;;;;9.19;78.56;96378.19;4993832;28;20026;-67
2022/04/27 02:14:49;;;;;;;4.55;2.35;;;;;;;9.20;79.40;96383.34;4993703;28;20026;-64
2022/04/27 02:17:16;;;;;;;2.17;1.98;;;;;;;9.20;79.03;96377.25;4993868;28;20492;-62
2022/04/27 02:19:41;;;;;;;2.00;1.85;;;;;;;9.18;78.60;96377.31;4993615;28;20026;-67
2022/04/27 02:22:07;;;;;;;4.85;2.10;;;;;;;9.15;78.63;96379.19;4993595;28;20026;-67
2022/04/27 02:24:33;;;;;;;2.08;1.98;;;;;;;9.14;78.88;96374.88;4993740;28;20034;-66
2022/04/27 02:26:58;;;;;;;1.88;1.63;;;;;;;9.07;78.40;96379.47;4993653;28;20488;-66
2022/04/27 02:29:24;;;;;;;3.83;1.60;;;;;;;9.03;78.51;96372.66;4993631;28;20030;-65
2022/04/27 02:31:51;;;;;;;4.00;1.85;;;;;;;9.01;78.85;96377.06;4993603;28;20023;-65
2022/04/27 02:34:16;;;;;;;1.67;1.58;;;;;;;9.03;78.45;96375.25;4993578;28;20031;-67
2022/04/27 02:36:42;;;;;;;5.32;1.80;;;;;;;9.05;78.34;96382.13;4993621;28;20037;-64
2022/04/27 02:39:08;;;;;;;2.35;1.63;;;;;;;9.02;78.21;96382.22;4993567;28;20455;-65
2022/04/27 02:41:33;;;;;;;2.97;2.08;;;;;;;9.05;78.62;96371.69;4993233;28;20509;-67
2022/04/27 02:43:59;;;;;;;3.47;1.90;;;;;;;9.00;79.65;96376.19;4993566;28;20093;-64
2022/04/27 02:46:24;;;;;;;2.35;1.60;;;;;;;8.95;78.15;96375.50;4993587;28;20177;-67
2022/04/27 02:51:49;;;;;;;3.20;1.80;;;;;;;8.78;78.68;96378.69;4993802;28;20037;-65
2022/04/27 02:54:16;;;;;;;1.50;1.40;;;;;;;8.66;79.49;96359.94;4993378;28;20036;-66
2022/04/27 02:56:42;;;;;;;1.67;1.58;;;;;;;8.71;79.50;96378.91;4993420;28;20030;-66
2022/04/27 02:59:08;;;;;;;1.55;1.45;;;;;;;8.65;79.66;96375.63;4993353;28;20030;-65
2022/04/27 03:01:34;;;;;;;6.50;1.95;;;;;;;8.61;80.42;96377.47;4993446;28;20088;-65
2022/04/27 03:04:00;;;;;;;10.77;1.60;;;;;;;8.61;80.90;96387.91;4993340;28;20027;-65
2022/04/27 03:06:26;;;;;;;6.50;3.05;;;;;;;8.55;83.91;96388.13;4993606;28;20042;-67
2022/04/27 03:08:51;;;;;;;6.00;2.28;;;;;;;8.56;83.46;96395.91;4993365;28;20376;-67
2022/04/27 03:11:17;;;;;;;2.13;1.90;;;;;;;8.60;81.69;96396.63;4993245;28;20093;-64
2022/04/27 03:13:42;;;;;;;2.60;1.58;;;;;;;8.53;81.17;96392.50;4993269;28;20038;-67
2022/04/27 03:16:08;;;;;;;2.05;1.75;;;;;;;8.49;80.86;96389.13;4993218;28;20049;-66
2022/04/27 03:18:34;;;;;;;5.68;1.50;;;;;;;8.46;80.85;96399.69;4993287;28;20031;-63
2022/04/27 03:20:59;;;;;;;3.78;1.92;;;;;;;8.47;81.37;96403.97;4993069;28;20105;-65
2022/04/27 03:23:25;;;;;;;4.18;1.95;;;;;;;8.49;81.59;96412.59;4993207;28;20019;-63
2022/04/27 03:25:50;;;;;;;1.80;1.60;;;;;;;8.49;81.47;96409.16;4993179;28;20381;-64
2022/04/27 03:28:16;;;;;;;2.70;2.15;;;;;;;8.46;82.86;96399.69;4993031;28;20062;-67
2022/04/27 03:30:42;;;;;;;6.20;1.70;;;;;;;8.45;81.77;96403.16;4993156;28;20022;-66
2022/04/27 03:33:07;;;;;;;1.80;1.70;;;;;;;8.50;82.16;96409.09;4996785;28;20034;-66
2022/04/27 03:35:33;;;;;;;1.80;1.70;;;;;;;8.57;82.47;96405.41;4996755;28;20018;-66
2022/04/27 03:37:59;;;;;;;1.92;1.83;;;;;;;8.62;82.28;96417.44;4996432;28;20023;-66
2022/04/27 03:40:25;;;;;;;1.90;1.70;;;;;;;8.62;82.10;96409.63;4996223;28;20042;-65
2022/04/27 03:42:51;;;;;;;2.70;1.95;;;;;;;8.68;82.94;96412.03;4996560;28;20465;-63
2022/04/27 03:45:19;;;;;;;1.77;1.67;;;;;;;8.80;81.75;96422.09;4996379;28;20034;-63
2022/04/27 03:47:49;;;;;;;3.50;1.88;;;;;;;8.83;82.04;96418.50;4996377;28;20377;-64
2022/04/27 03:50:15;;;;;;;5.38;1.67;;;;;;;8.87;81.04;96422.72;4996343;28;20101;-65
2022/04/27 03:52:48;;;;;;;1.45;1.35;;;;;;;8.87;80.35;96412.28;4996231;28;20019;-63
2022/04/27 03:55:14;;;;;;;3.75;1.58;;;;;;;9.03;80.39;96430.06;4996243;28;20056;-65
2022/04/27 03:57:40;;;;;;;3.05;1.40;;;;;;;9.39;79.84;96427.06;4996164;28;20026;-65
2022/04/27 04:00:06;;;;;;;3.83;1.25;;;;;;;9.95;78.29;96442.50;4996235;28;20041;-64
2022/04/27 04:02:32;;;;;;;3.05;1.27;;;;;;;10.40;76.98;96439.97;4996035;28;20172;-66
2022/04/27 04:04:58;;;;;;;2.08;1.52;;;;;;;10.78;75.36;96439.41;4996058;28;20102;-64
2022/04/27 04:07:24;;;;;;;3.22;1.80;;;;;;;11.14;75.20;96440.56;4996103;28;20495;-62
2022/04/27 04:09:50;;;;;;;2.63;1.60;;;;;;;11.52;74.34;96438.06;4995889;28;20027;-66
2022/04/27 04:12:15;;;;;;;3.15;1.20;;;;;;;11.94;71.94;96449.34;4995926;28;20030;-65
2022/04/27 04:14:41;;;;;;;1.20;1.10;;;;;;;12.31;71.58;96443.38;4995831;28;20030;-66
2022/04/27 04:17:07;;;;;;;1.30;1.13;;;;;;;12.70;70.53;96446.81;4995722;28;20389;-66
2022/04/27 04:19:33;;;;;;;0.90;0.90;;;;;;;13.08;70.27;96448.47;4995719;28;20073;-63
2022/04/27 04:21:59;;;;;;;3.40;0.70;;;;;;;13.49;69.57;96450.81;4995769;28;20022;-64
2022/04/27 04:24:26;;;;;;;1.17;1.13;;;;;;;13.93;69.34;96453.81;4995815;28;20031;-65
2022/04/27 04:29:36;;;;;;;1.20;1.10;;;;;;;14.84;66.10;96470.88;4995888;28;20448;-63
2022/04/27 04:32:01;;;;;;;1.23;1.13;;;;;;;15.27;65.20;96470.22;4995526;28;20038;-63
2022/04/27 04:34:27;;;;;;;1.25;1.05;;;;;;;15.70;64.70;96463.34;4995507;28;20357;-65
2022/04/27 04:36:53;;;;;;;3.30;1.23;;;;;;;16.09;64.10;96474.25;4995586;28;20461;-65
2022/04/27 04:39:18;;;;;;;1.15;0.95;;;;;;;16.50;62.61;96477.03;4995312;28;20497;-63
2022/04/27 04:41:44;;;;;;;1.73;1.10;;;;;;;16.85;61.37;96473.91;4994991;28;20046;-63
2022/04/27 04:44:10;;;;;;;1.80;0.80;;;;;;;17.24;60.27;96476.72;4994201;28;20354;-62
2022/04/27 04:46:36;;;;;;;1.17;0.90;;;;;;;17.55;58.52;96485.25;4995320;28;20023;-65
2022/04/27 04:49:01;;;;;;;1.05;0.70;;;;;;;17.86;58.34;96484.13;4995327;28;20097;-62
2022/04/27 04:51:31;;;;;;;2.33;0.70;;;;;;;18.09;57.99;96481.69;4995086;28;20029;-64
2022/04/27 04:53:56;;;;;;;1.95;0.80;;;;;;;18.30;57.51;96485.50;4995182;28;20069;-63
2022/04/27 04:56:22;;;;;;;1.40;0.90;;;;;;;18.62;57.74;96491.28;4995081;28;20038;-62
2022/04/27 04:58:47;;;;;;;4.38;0.70;;;;;;;18.89;56.95;96495.53;4995041;28;20515;-64
2022/04/27 05:01:13;;;;;;;0.90;0.85;;;;;;;19.15;56.29;96495.47;4994936;28;20022;-64
2022/04/27 05:03:38;;;;;;;2.50;0.90;;;;;;;19.39;55.66;96492.78;4994940;28;20033;-61
2022/04/27 05:06:05;;;;;;;3.30;0.77;;;;;;;19.60;55.44;96500.13;4994768;28;20438;-62
2022/04/27 05:08:31;;;;;;;3.92;0.60;;;;;;;19.75;55.09;96498.09;4994813;28;20027;-61
2022/04/27 05:10:56;;;;;;;1.00;0.80;;;;;;;19.95;55.23;96503.69;4994821;28;20030;-63
2022/04/27 05:13:22;;;;;;;1.10;0.90;;;;;;;20.01;54.84;96500.59;4994836;28;20019;-62
2022/04/27 05:15:49;;;;;;;2.33;0.85;;;;;;;20.14;53.82;96503.13;4994820;28;20080;-61
2022/04/27 05:18:17;;;;;;;2.92;0.90;;;;;;;20.13;53.63;96504.09;4994597;28;20030;-62
2022/04/27 05:20:43;;;;;;;5.93;1.60;;;;;;;20.49;52.81;96498.69;4994535;28;20073;-63
2022/04/27 05:23:11;;;;;;;2.65;1.10;;;;;;;20.72;53.04;96503.97;4994585;28;20408;-62
2022/04/27 05:25:37;;;;;;;2.80;0.80;;;;;;;20.78;51.44;96505.28;4994646;28;20102;-61
2022/04/27 05:28:04;;;;;;;1.40;0.90;;;;;;;20.90;51.95;96501.69;4994548;28;20042;-61
2022/04/27 05:33:18;;;;;;;3.78;0.90;;;;;;;21.29;50.36;96503.03;4994834;28;20433;-63
2022/04/27 05:35:44;;;;;;;2.33;1.00;;;;;;;21.21;50.43;96506.31;4994415;28;20022;-62
2022/04/27 05:38:11;;;;;;;2.67;0.90;;;;;;;21.45;50.67;96500.78;4994338;28;20014;-62
2022/04/27 05:40:39;;;;;;;1.73;1.30;;;;;;;21.46;51.63;96506.94;4994145;28;20433;-62
2022/04/27 05:43:06;;;;;;;1.48;1.20;;;;;;;21.55;51.34;96505.34;4994164;28;20030;-60
2022/04/27 05:45:32;;;;;;;3.13;1.40;;;;;;;21.70;51.14;96500.53;4994210;28;20488;-61
2022/04/27 05:47:59;;;;;;;1.52;1.10;;;;;;;21.86;49.43;96510.78;4994229;28;20891;-62
2022/04/27 05:50:25;;;;;;;2.50;1.30;;;;;;;22.05;49.04;96510.03;4994186;28;20027;-63
2022/04/27 05:52:53;;;;;;;1.77;1.20;;;;;;;22.25;48.73;96506.63;4993947;28;20108;-62
2022/04/27 05:55:22;;;;;;;2.03;1.00;;;;;;;22.22;49.02;96516.56;4993634;28;20022;-62
2022/04/27 05:57:48;;;;;;;1.25;1.00;;;;;;;22.20;47.84;96512.34;4993852;28;20034;-62
2022/04/27 06:00:14;;;;;;;2.88;1.10;;;;;;;22.38;49.14;96515.25;4993844;28;20026;-62
2022/04/27 06:02:40;;;;;;;4.80;0.93;;;;;;;22.75;48.00;96516.53;4993983;28;20022;-63
2022/04/27 06:05:08;;;;;;;2.45;1.10;;;;;;;23.05;46.95;96519.25;4993937;28;20491;-63
2022/04/27 06:07:35;;;;;;;1.70;0.75;;;;;;;23.02;46.57;96515.06;4993783;28;20384;-63
2022/04/27 06:10:06;;;;;;;1.40;0.82;;;;;;;23.30;45.68;96515.22;4993710;28;20034;-62
2022/04/27 06:12:36;;;;;;;1.52;1.00;;;;;;;23.53;44.52;96522.16;4994014;28;20452;-61
2022/04/27 06:15:11;;;;;;;2.20;0.82;;;;;;;23.72;44.03;96526.66;4993885;28;20381;-62
2022/04/27 06:17:36;;;;;;;2.13;0.80;;;;;;;23.95;45.70;96521.00;4993799;28;20042;-62
2022/04/27 06:20:03;;;;;;;1.27;0.70;;;;;;;24.19;43.75;96519.72;4993602;28;20018;-62
2022/04/27 06:22:28;;;;;;;1.52;0.90;;;;;;;24.33;44.20;96523.75;4976300;28;20033;-63
2022/04/27 06:24:55;;;;;;;1.85;0.77;;;;;;;24.29;39.91;96530.38;4993751;28;20034;-62
2022/04/27 06:27:20;;;;;;;3.10;0.95;;;;;;;24.37;42.74;96530.50;4993669;28;20069;-62
2022/04/27 06:29:46;;;;;;;1.13;0.80;;;;;;;24.17;44.01;96529.72;4993578;28;20472;-62
2022/04/27 06:32:12;;;;;;;1.50;1.10;;;;;;;24.03;42.47;96547.00;4993752;28;20022;-62
2022/04/27 06:34:38;;;;;;;1.65;0.82;;;;;;;24.13;43.45;96539.84;4993681;28;20377;-62
2022/04/27 06:37:03;;;;;;;0.95;0.60;;;;;;;24.17;42.54;96548.41;4993632;28;20097;-62
2022/04/27 06:39:29;;;;;;;4.53;0.80;;;;;;;24.30;40.35;96545.44;4993524;28;20026;-62
2022/04/27 06:41:55;;;;;;;3.22;1.08;;;;;;;23.99;42.59;96551.81;4993188;28;20093;-61
2022/04/27 06:44:20;;;;;;;1.83;0.90;;;;;;;23.95;42.90;96548.56;4993399;28;20022;-63
2022/04/27 06:46:46;;;;;;;1.73;1.10;;;;;;;24.07;43.99;96551.06;4993452;28;20026;-63
2022/04/27 06:49:12;;;;;;;1.70;1.10;;;;;;;23.76;43.90;96556.56;4976167;28;20112;-62
2022/04/27 06:51:38;;;;;;;2.53;1.33;;;;;;;23.93;45.86;96552.38;4976298;28;20087;-62
2022/04/27 06:54:05;;;;;;;2.78;1.10;;;;;;;24.12;45.33;96562.19;4993489;28;20034;-63
2022/04/27 06:56:31;;;;;;;2.55;1.10;;;;;;;24.57;44.85;96554.50;4993309;28;20025;-63
2022/04/27 06:58:56;;;;;;;2.03;1.10;;;;;;;24.65;44.93;96556.44;4976208;28;20113;-62
2022/04/27 07:01:22;;;;;;;5.20;1.45;;;;;;;24.41;46.25;96560.47;4993333;28;20092;-62
2022/04/27 07:03:53;;;;;;;5.07;1.08;;;;;;;24.68;42.89;96564.16;4993474;28;20026;-62
2022/04/27 07:06:19;;;;;;;3.42;1.35;;;;;;;25.08;44.85;96562.16;4994285;28;20035;-63
2022/04/27 07:08:45;;;;;;;1.85;1.20;;;;;;;25.43;43.32;96575.75;4997119;28;20022;-64
2022/04/27 07:11:10;;;;;;;3.88;1.10;;;;;;;25.78;42.46;96567.91;4996970;28;20070;-61
2022/04/27 07:13:36;;;;;;;3.90;1.58;;;;;;;26.11;42.41;96562.81;4996926;28;20022;-63
2022/04/27 07:16:01;;;;;;;3.15;1.50;;;;;;;26.21;40.86;96562.72;4997028;28;20033;-63
2022/04/27 07:18:30;;;;;;;6.20;1.63;;;;;;;26.37;40.89;96575.44;4996913;28;20503;-63
2022/04/27 07:20:56;;;;;;;9.88;1.65;;;;;;;26.13;44.35;96574.25;4996755;28;20022;-63
2022/04/27 07:23:22;;;;;;;3.75;1.42;;;;;;;26.08;41.31;96571.16;4996740;28;20018;-64
2022/04/27 07:25:48;;;;;;;4.90;1.50;;;;;;;26.09;41.55;96575.53;4996806;28;20026;-63
2022/04/27 07:28:14;;;;;;;4.32;1.60;;;;;;;25.79;40.55;96570.44;4996861;28;20088;-63
2022/04/27 07:30:39;;;;;;;3.15;1.58;;;;;;;25.98;38.17;96571.28;4996729;28;20372;-62
2022/04/27 07:33:05;;;;;;;4.50;1.92;;;;;;;26.01;39.24;96573.66;4996697;28;20358;-62
2022/04/27 07:35:32;;;;;;;6.55;1.65;;;;;;;25.63;36.32;96575.63;4996529;28;20022;-62
2022/04/27 07:37:58;;;;;;;5.57;2.05;;;;;;;25.20;38.37;96574.31;4996608;28;20488;-63
2022/04/27 07:40:24;;;;;;;4.00;1.20;;;;;;;25.37;39.96;96579.88;4996271;28;20521;-64
2022/04/27 07:42:49;;;;;;;3.88;1.60;;;;;;;25.57;38.63;96572.56;4996543;28;20040;-63
2022/04/27 07:45:15;;;;;;;4.88;1.58;;;;;;;25.75;40.18;96574.41;4996547;28;20042;-63
2022/04/27 07:47:46;;;;;;;3.15;1.42;;;;;;;25.68;36.65;96581.38;4996400;28;20018;-65
2022/04/27 07:50:14;;;;;;;;;;;;;;;25.13;37.06;96578.59;4996789;28;20437;-62
2022/04/27 07:52:40;;;;;;;5.55;1.60;;;;;;;24.73;40.59;96572.56;4978876;28;19972;-63
2022/04/27 07:55:07;;;;;;;3.75;1.50;;;;;;;24.61;38.84;96580.78;4996308;28;20030;-62
2022/04/27 07:57:33;;;;;;;6.68;1.60;;;;;;;24.72;40.58;96579.75;4995991;28;20030;-62
2022/04/27 08:00:01;;;;;;;6.80;1.35;;;;;;;24.66;40.51;96572.34;4996183;28;20121;-64
2022/04/27 08:02:27;;;;;;;7.35;1.50;;;;;;;24.46;39.14;96572.38;4996029;28;20228;-64
2022/04/27 08:04:53;;;;;;;4.93;1.77;;;;;;;24.47;39.54;96578.59;4995920;28;20022;-64
2022/04/27 08:07:18;;;;;;;4.13;1.63;;;;;;;24.16;40.42;96576.94;4996378;28;20338;-65
2022/04/27 08:09:44;;;;;;;7.78;1.70;;;;;;;24.09;37.78;96567.81;4995926;28;20484;-64
2022/04/27 08:12:09;;;;;;;3.60;1.38;;;;;;;23.93;38.93;96574.56;4995936;28;20038;-65
2022/04/27 08:14:36;;;;;;;3.72;1.15;;;;;;;23.98;39.58;96566.97;4995954;28;20034;-63
2022/04/27 08:17:02;;;;;;;4.53;1.27;;;;;;;23.83;37.56;96569.22;4995708;28;20042;-62
2022/04/27 08:19:28;;;;;;;5.45;1.63;;;;;;;23.81;39.31;96562.34;4995904;28;20097;-63
2022/04/27 08:21:59;;;;;;;5.60;1.50;;;;;;;23.75;44.01;96565.59;4995733;28;20041;-64
2022/04/27 08:24:25;;;;;;;3.35;1.50;;;;;;;23.30;42.65;96567.78;4995645;28;20034;-61
2022/04/27 08:26:51;;;;;;;5.30;1.58;;;;;;;23.41;43.29;96559.66;4995670;28;20023;-65
2022/04/27 08:29:18;;;;;;;6.10;1.63;;;;;;;23.46;42.12;96568.09;4995663;28;20490;-65
2022/04/27 08:31:44;;;;;;;6.57;1.60;;;;;;;23.17;40.95;96563.53;4995715;28;20101;-64
2022/04/27 08:34:09;;;;;;;3.90;1.65;;;;;;;22.97;41.55;96565.31;4995396;28;20113;-62
2022/04/27 08:36:35;;;;;;;5.22;1.48;;;;;;;22.63;40.67;96563.78;4995594;28;20094;-65
2022/04/27 08:39:02;;;;;;;3.70;1.30;;;;;;;22.58;39.79;96550.84;4995522;28;20511;-61
2022/04/27 08:41:28;;;;;;;8.50;1.83;;;;;;;22.34;41.63;96551.13;4995098;28;20054;-63
2022/04/27 08:43:55;;;;;;;3.25;1.45;;;;;;;22.20;42.66;96550.50;4995457;28;20102;-62
2022/04/27 08:46:23;;;;;;;4.00;1.63;;;;;;;22.45;43.91;96548.38;4995371;28;20026;-64
2022/04/27 08:48:50;;;;;;;4.47;1.48;;;;;;;22.52;42.15;96542.53;4995240;28;20109;-64
2022/04/27 08:51:17;;;;;;;5.40;1.45;;;;;;;22.76;43.56;96541.38;4995256;28;20030;-63
2022/04/27 08:53:43;;;;;;;6.30;1.42;;;;;;;22.83;40.86;96537.19;4995139;28;20057;-64
2022/04/27 08:56:09;;;;;;;4.85;1.35;;;;;;;22.52;38.86;96546.03;4995201;28;20030;-65
2022/04/27 08:58:36;;;;;;;3.28;1.48;;;;;;;22.33;39.07;96547.63;4995029;28;20026;-64
2022/04/27 09:01:01;;;;;;;6.07;1.25;;;;;;;22.02;38.00;96542.25;4994838;28;20040;-64
2022/04/27 09:03:36;;;;;;;5.07;1.40;;;;;;;22.15;38.77;96543.88;4994958;28;20023;-65
2022/04/27 09:06:05;;;;;;;3.60;1.10;;;;;;;22.02;39.14;96541.41;4994947;28;20038;-64
2022/04/27 09:08:41;;;;;;;2.08;1.10;;;;;;;22.26;37.66;96542.94;4995132;28;20023;-64
2022/04/27 09:11:33;;;;;;;4.03;1.20;;;;;;;22.05;37.92;96542.00;4995139;28;20030;-64
2022/04/27 09:14:06;;;;;;;4.68;1.02;;;;;;;22.28;34.88;96541.84;4994912;28;20038;-63
2022/04/27 09:22:11;;;;;;;2.65;1.10;;;;;;;22.64;37.28;96541.50;4994734;28;20440;-63
2022/04/27 09:24:48;;;;;;;5.55;1.60;;;;;;;22.59;36.70;96547.22;4994550;28;20108;-63
2022/04/27 09:27:17;;;;;;;3.42;1.75;;;;;;;22.38;37.66;96541.91;4994542;28;20397;-65
2022/04/27 09:29:43;;;;;;;2.88;1.27;;;;;;;22.72;39.48;96538.97;4993929;28;20125;-61
2022/04/27 09:32:17;;;;;;;4.40;1.80;;;;;;;23.19;40.59;96548.25;4994477;28;20038;-65
2022/04/27 09:34:47;;;;;;;4.18;1.20;;;;;;;23.26;35.82;96545.84;4994673;28;20120;-62
2022/04/27 09:37:42;;;;;;;4.07;1.08;;;;;;;22.92;34.29;96548.88;4994353;28;20034;-63
2022/04/27 09:40:14;;;;;;;5.43;1.52;;;;;;;22.71;31.90;96552.44;4976665;28;20138;-61
2022/04/27 09:42:46;;;;;;;4.63;1.05;;;;;;;22.53;32.44;96549.53;4994251;28;20026;-64
2022/04/27 09:45:23;;;;;;;7.57;1.52;;;;;;;22.27;36.05;96537.47;4994363;28;20054;-64
2022/04/27 09:48:01;;;;;;;4.55;1.10;;;;;;;22.30;35.83;96541.69;4994078;28;20034;-65
2022/04/27 09:50:55;;;;;;;2.97;1.38;;;;;;;22.40;32.23;96541.75;4994218;28;20054;-64
2022/04/27 09:53:21;;;;;;;3.83;1.00;;;;;;;22.32;32.73;96535.28;4994049;28;20030;-63
2022/04/27 09:55:48;;;;;;;7.68;1.05;;;;;;;;;;4994106;28;20057;-65
2022/04/27 09:58:16;;;;;;;3.72;1.52;;;;;;;22.29;34.14;96538.22;4994083;28;20041;-63
2022/04/27 10:00:43;;;;;;;2.55;1.45;;;;;;;22.47;37.82;96534.91;4993848;28;20428;-63
2022/04/27 10:03:15;;;;;;;4.18;1.10;;;;;;;22.60;32.35;96521.38;4993744;28;20026;-63
2022/04/27 10:05:43;;;;;;;6.53;2.35;;;;;;;22.71;35.21;96537.31;4994018;28;20105;-63
2022/04/27 10:08:10;;;;;;;3.95;1.33;;;;;;;22.57;36.68;96534.94;4993966;28;20022;-63
2022/04/27 10:10:45;;;;;;;4.20;1.20;;;;;;;22.36;36.28;96532.34;4993943;28;20029;-64
2022/04/27 10:13:13;;;;;;;1.73;0.90;;;;;;;22.50;40.56;96539.97;4994087;28;20499;-65
2022/04/27 10:15:46;;;;;;;3.60;1.15;;;;;;;22.32;37.74;96537.09;4993632;28;20030;-64
2022/04/27 10:18:15;;;;;;;5.95;1.00;;;;;;;22.02;32.56;96528.09;4993954;28;20018;-62
2022/04/27 10:20:41;;;;;;;4.45;1.25;;;;;;;22.11;34.05;96526.44;4993569;28;20114;-63
2022/04/27 10:23:21;;;;;;;1.60;1.10;;;;;;;22.31;34.26;96530.09;4993697;28;20093;-63
2022/04/27 10:26:15;;;;;;;6.60;1.10;;;;;;;22.45;36.24;96518.22;4993712;28;20040;-63
2022/04/27 10:28:50;;;;;;;2.15;1.20;;;;;;;22.69;38.47;96519.72;4993659;28;20038;-64
2022/04/27 10:31:44;;;;;;;6.53;1.23;;;;;;;22.39;35.53;96521.44;4993680;28;20030;-63
2022/04/27 10:34:30;;;;;;;2.50;1.05;;;;;;;22.50;35.37;96512.47;4993597;28;20042;-63
2022/04/27 10:36:59;;;;;;;2.55;1.13;;;;;;;22.54;35.03;96528.06;4993593;28;20045;-62
2022/04/27 10:39:34;;;;;;;3.70;1.30;;;;;;;22.38;34.07;96525.06;4993644;28;20033;-64
2022/04/27 10:42:05;;;;;;;2.38;1.38;;;;;;;22.49;34.59;96516.13;4997012;28;20043;-64
2022/04/27 10:44:53;;;;;;;4.18;1.15;;;;;;;22.59;32.69;96519.72;4997558;28;20030;-62
2022/04/27 10:47:22;;;;;;;6.03;1.10;;;;;;;22.60;33.88;96521.38;4997602;28;20057;-66
2022/04/27 10:50:08;;;;;;;5.03;1.10;;;;;;;22.55;32.75;96523.59;4997361;28;20516;-63
2022/04/27 10:52:56;;;;;;;1.52;0.70;;;;;;;22.62;30.84;96516.78;4979890;28;20030;-66
2022/04/27 10:55:51;;;;;;;3.95;1.00;;;;;;;22.69;31.13;96520.59;4997390;28;20496;-64
2022/04/27 10:58:31;;;;;;;3.85;1.20;;;;;;;22.43;29.22;96521.00;4994950;28;20046;-63
2022/04/27 11:01:02;;;;;;;2.88;1.20;;;;;;;22.45;32.77;96512.88;4997125;28;20551;-64
2022/04/27 11:03:35;;;;;;;3.30;1.20;;;;;;;22.55;33.59;96515.59;4997343;28;20046;-64
2022/04/27 11:06:06;;;;;;;5.90;1.33;;;;;;;22.78;33.17;96515.44;4997140;28;20109;-66
2022/04/27 11:08:59;;;;;;;3.58;0.95;;;;;;;22.99;34.68;96518.00;4997165;28;20026;-65
2022/04/27 11:11:27;;;;;;;3.08;1.10;;;;;;;22.77;31.25;96519.06;4997141;28;20030;-66
2022/04/27 11:14:00;;;;;;;1.15;0.70;;;;;;;22.62;30.36;96510.59;4996937;28;20105;-65
2022/04/27 11:16:26;;;;;;;5.85;1.88;;;;;;;22.50;30.77;96512.47;4996930;28;20037;-65
2022/04/27 11:18:57;;;;;;;5.32;1.38;;;;;;;22.41;29.79;96509.66;4996975;28;20027;-65
2022/04/27 11:21:31;;;;;;;2.80;0.90;;;;;;;22.31;32.46;96504.28;4996869;28;20117;-64
2022/04/27 11:23:58;;;;;;;3.83;1.00;;;;;;;22.30;31.24;96507.06;4996912;28;20032;-64
2022/04/27 11:26:24;;;;;;;1.95;1.00;;;;;;;22.41;28.79;96498.16;4996700;28;20113;-64
2022/04/27 11:28:55;;;;;;;3.55;1.15;;;;;;;22.61;30.57;96503.59;4996772;28;20022;-65
2022/04/27 11:31:21;;;;;;;8.00;1.38;;;;;;;22.56;32.36;96511.94;4996763;28;20033;-64
2022/04/27 11:33:48;;;;;;;6.88;2.03;;;;;;;22.60;33.56;96502.72;4996698;28;20023;-65
2022/04/27 11:36:22;;;;;;;5.85;1.48;;;;;;;22.51;33.30;96500.88;4996656;28;20026;-66
2022/04/27 11:38:53;;;;;;;16.08;1.90;;;;;;;22.45;32.36;96488.91;4996558;28;20034;-63
2022/04/27 11:41:26;;;;;;;2.78;1.10;;;;;;;22.54;33.23;96496.09;4996389;28;20137;-63
2022/04/27 11:43:55;;;;;;;3.50;1.40;;;;;;;22.65;34.82;96481.00;4996600;28;20105;-63
2022/04/27 11:46:22;;;;;;;10.27;1.55;;;;;;;22.78;31.53;96483.44;4996474;28;20037;-63
2022/04/27 11:48:51;;;;;;;9.95;1.58;;;;;;;22.69;29.67;96493.94;4996473;28;20481;-63
2022/04/27 11:51:16;;;;;;;9.05;1.50;;;;;;;22.57;33.09;96477.19;4996284;28;20027;-63
2022/04/27 11:53:49;;;;;;;6.35;1.27;;;;;;;22.62;33.99;96479.47;4995778;28;20026;-64
2022/04/27 11:56:16;;;;;;;9.15;2.08;;;;;;;22.54;34.67;96463.25;4996276;28;20094;-65